»·PEaware :: QXE2020 KPDX-KMFR

QXE2020 :: KPDX-KMFR

FLIGHT INFORMATION

Flight Status: Arrived
Operator:
Horizon Air
More flights by this operator :: More flights under this callsign
Pilot: Adlai G. (28854)
Aircraft: DEHAVILLAND DASH 8 400
(DH8D)
More flights by this aircraft type
Origin: KPDX Portland Intl
United States
Destination: KMFR Rogue Valley Intl-Medford
United States
More flights between these airports :: More routes between these airports
Route: EUG OED
File this flight plan on PilotEdge
Remarks:
Altitude:
(Current/Filed)
21,000ft
Speed:
(Current/Filed)
371kts
Departed: 08-Jun-20 05:23 PM
Arrived: 08-Jun-20 06:04 PM
Distance/Time
Traveled:
194nm/0:41
Distance/Time
To Go:
Arrived

Flight Plot

Page will automatically refresh every two minutes.

Flight plan parsing failed; only flown route is shown


Map Options




Map Legend


Flown Route
Filed Route
Departure Airport
Arrival Airport
Navaid (VOR, NDB)
Fix

Horizontal Profiles

Position Reports

Time Latitude Longitude Heading Altitude Ground
Speed
08-Jun-20 16:47 45.590405 -122.598172 209 37ft 0kts
08-Jun-20 16:48 45.590405 -122.598172 209 37ft 0kts
08-Jun-20 16:49 45.590405 -122.598172 209 37ft 0kts
08-Jun-20 16:50 45.590405 -122.598172 209 37ft 0kts
08-Jun-20 16:51 45.590405 -122.598172 209 37ft 0kts
08-Jun-20 16:53 45.590405 -122.598172 209 37ft 0kts
08-Jun-20 16:54 45.590405 -122.598172 209 37ft 0kts
08-Jun-20 16:55 45.590405 -122.598172 209 37ft 0kts
08-Jun-20 16:56 45.590405 -122.598172 209 37ft 0kts
08-Jun-20 16:57 45.590405 -122.598172 209 37ft 0kts
08-Jun-20 16:58 45.590405 -122.598172 209 37ft 0kts
08-Jun-20 16:59 45.590405 -122.598172 209 37ft 0kts
08-Jun-20 17:00 45.590405 -122.598172 209 37ft 0kts
08-Jun-20 17:01 45.590405 -122.598172 209 37ft 0kts
08-Jun-20 17:02 45.590405 -122.598172 209 37ft 0kts
08-Jun-20 17:03 45.590405 -122.598172 209 37ft 0kts
08-Jun-20 17:04 45.590405 -122.598172 209 37ft 0kts
08-Jun-20 17:05 45.590405 -122.598172 209 37ft 0kts
08-Jun-20 17:06 45.590405 -122.598172 209 37ft 0kts
08-Jun-20 17:07 45.590405 -122.598172 209 37ft 0kts
08-Jun-20 17:08 45.590405 -122.598172 209 37ft 0kts
08-Jun-20 17:08 45.590405 -122.598172 209 37ft 0kts
08-Jun-20 17:10 45.590405 -122.598172 209 37ft 0kts
08-Jun-20 17:11 45.590405 -122.598172 209 37ft 0kts
08-Jun-20 17:11 45.590405 -122.598172 209 37ft 0kts
08-Jun-20 17:13 45.590405 -122.598172 209 37ft 0kts
08-Jun-20 17:13 45.590681 -122.597910 223 37ft 2kts
08-Jun-20 17:14 45.590773 -122.597269 299 37ft 0kts
08-Jun-20 17:16 45.590773 -122.597269 299 37ft 0kts
08-Jun-20 17:16 45.590773 -122.597269 299 37ft 0kts
08-Jun-20 17:17 45.590790 -122.597313 299 37ft 0kts
08-Jun-20 17:18 45.590819 -122.597386 299 37ft 1kts
08-Jun-20 17:19 45.592259 -122.598263 48 37ft 10kts
08-Jun-20 17:20 45.593898 -122.596123 36 37ft 4kts
08-Jun-20 17:21 45.594587 -122.595041 114 37ft 7kts
08-Jun-20 17:22 45.582239 -122.564901 123 991ft 152kts
08-Jun-20 17:23 45.556156 -122.512386 126 4125ft 177kts
08-Jun-20 17:24 45.507078 -122.510174 201 6587ft 228kts
08-Jun-20 17:25 45.441290 -122.544096 202 8296ft 264kts
08-Jun-20 17:26 45.374132 -122.580099 202 10408ft 255kts
08-Jun-20 17:27 45.307551 -122.615133 201 12191ft 246kts
08-Jun-20 17:28 45.241479 -122.633943 187 13799ft 249kts
08-Jun-20 17:29 45.171547 -122.640319 190 15064ft 253kts
08-Jun-20 17:30 45.099867 -122.646710 191 16251ft 254kts
08-Jun-20 17:31 45.027767 -122.653969 192 17358ft 267kts
08-Jun-20 17:32 44.951633 -122.662053 192 18371ft 281kts
08-Jun-20 17:33 44.872496 -122.670414 192 19384ft 290kts
08-Jun-20 17:34 44.790952 -122.678809 192 20387ft 297kts
08-Jun-20 17:35 44.708176 -122.687326 192 21195ft 307kts
08-Jun-20 17:36 44.618941 -122.697120 192 21278ft 334kts
08-Jun-20 17:37 44.523793 -122.707495 191 21279ft 351kts
08-Jun-20 17:38 44.425325 -122.717967 191 21279ft 359kts
08-Jun-20 17:39 44.325383 -122.728383 191 21280ft 363kts
08-Jun-20 17:40 44.224324 -122.738862 191 21280ft 365kts
08-Jun-20 17:41 44.123286 -122.749229 191 21281ft 365kts
08-Jun-20 17:42 44.021847 -122.759733 191 21281ft 366kts
08-Jun-20 17:43 43.920410 -122.770091 191 21282ft 367kts
08-Jun-20 17:44 43.818583 -122.780568 190 21282ft 367kts
08-Jun-20 17:45 43.716845 -122.790847 190 21283ft 368kts
08-Jun-20 17:46 43.615787 -122.800967 190 20824ft 362kts
08-Jun-20 17:47 43.516022 -122.811199 190 20208ft 359kts
08-Jun-20 17:48 43.415249 -122.821441 190 18392ft 366kts
08-Jun-20 17:49 43.315269 -122.831807 189 16370ft 352kts
08-Jun-20 17:50 43.218838 -122.841520 189 14800ft 343kts
08-Jun-20 17:51 43.125167 -122.851277 188 13297ft 332kts
08-Jun-20 17:52 43.034828 -122.860523 187 12094ft 320kts
08-Jun-20 17:53 42.947855 -122.869198 187 11080ft 305kts
08-Jun-20 17:54 42.865495 -122.877167 186 10075ft 290kts
08-Jun-20 17:55 42.786381 -122.884914 185 8935ft 286kts
08-Jun-20 17:56 42.707367 -122.892510 185 8061ft 277kts
08-Jun-20 17:57 42.633991 -122.898778 185 7748ft 256kts
08-Jun-20 17:58 42.563566 -122.908272 205 6206ft 254kts
08-Jun-20 17:59 42.506892 -122.942391 163 4250ft 222kts
08-Jun-20 18:00 42.456888 -122.916165 158 3028ft 162kts
08-Jun-20 18:01 42.419741 -122.896613 159 2080ft 134kts
08-Jun-20 18:02 42.387243 -122.879642 159 1405ft 122kts
08-Jun-20 18:03 42.376158 -122.874975 249 1342ft 0kts
08-Jun-20 18:04 42.372865 -122.873775 158 1342ft 23kts
08-Jun-20 18:05 42.369501 -122.873403 250 1342ft 7kts
08-Jun-20 18:06 42.369371 -122.873911 251 1342ft 0kts
08-Jun-20 18:07 42.369371 -122.873911 251 1342ft 0kts
08-Jun-20 18:08 42.369371 -122.873911 251 1342ft 0kts
08-Jun-20 18:09 42.369371 -122.873911 251 1342ft 0kts
08-Jun-20 18:10 42.369371 -122.873911 251 1342ft 0kts
08-Jun-20 18:11 42.369371 -122.873911 251 1342ft 0kts
08-Jun-20 18:12 42.369371 -122.873911 251 1342ft 0kts
08-Jun-20 18:13 42.369371 -122.873911 251 1342ft 0kts
08-Jun-20 18:14 42.369371 -122.873911 251 1342ft 0kts
08-Jun-20 18:15 42.369371 -122.873911 251 1342ft 0kts

Navigation Log

Ident Type
Flight plan parsing failed, navigation log unavailable